sensor_id;sensor_type;location;lat;lon;timestamp;P1;durP1;ratioP1;P2;durP2;ratioP2
13208;SDS011;6669;42.678;23.332;2022-10-04T00:00:56;0.83;;;0.83;;
13208;SDS011;6669;42.678;23.332;2022-10-04T00:03:29;1.00;;;0.80;;
13208;SDS011;6669;42.678;23.332;2022-10-04T00:06:02;1.43;;;1.33;;
13208;SDS011;6669;42.678;23.332;2022-10-04T00:08:35;1.50;;;1.40;;
13208;SDS011;6669;42.678;23.332;2022-10-04T00:11:12;1.07;;;1.07;;
13208;SDS011;6669;42.678;23.332;2022-10-04T00:13:49;1.33;;;1.23;;
13208;SDS011;6669;42.678;23.332;2022-10-04T00:16:22;1.07;;;1.07;;
13208;SDS011;6669;42.678;23.332;2022-10-04T00:19:02;2.27;;;1.20;;
13208;SDS011;6669;42.678;23.332;2022-10-04T00:22:11;1.43;;;1.00;;
13208;SDS011;6669;42.678;23.332;2022-10-04T00:25:00;1.87;;;1.20;;
13208;SDS011;6669;42.678;23.332;2022-10-04T00:33:38;0.90;;;0.87;;
13208;SDS011;6669;42.678;23.332;2022-10-04T00:39:04;1.07;;;1.07;;
13208;SDS011;6669;42.678;23.332;2022-10-04T00:42:02;1.17;;;1.00;;
13208;SDS011;6669;42.678;23.332;2022-10-04T00:44:40;1.17;;;1.07;;
13208;SDS011;6669;42.678;23.332;2022-10-04T00:47:17;1.17;;;1.00;;
13208;SDS011;6669;42.678;23.332;2022-10-04T00:49:50;0.97;;;0.90;;
13208;SDS011;6669;42.678;23.332;2022-10-04T00:52:24;1.20;;;1.10;;
13208;SDS011;6669;42.678;23.332;2022-10-04T00:54:56;1.00;;;1.00;;
13208;SDS011;6669;42.678;23.332;2022-10-04T00:57:31;0.80;;;0.80;;
13208;SDS011;6669;42.678;23.332;2022-10-04T01:00:07;0.87;;;0.87;;
13208;SDS011;6669;42.678;23.332;2022-10-04T01:02:44;5.50;;;1.17;;
13208;SDS011;6669;42.678;23.332;2022-10-04T01:05:18;1.20;;;1.10;;
13208;SDS011;6669;42.678;23.332;2022-10-04T01:07:50;0.73;;;0.73;;
13208;SDS011;6669;42.678;23.332;2022-10-04T01:10:23;0.70;;;0.70;;
13208;SDS011;6669;42.678;23.332;2022-10-04T01:12:56;1.37;;;1.10;;
13208;SDS011;6669;42.678;23.332;2022-10-04T01:15:32;0.83;;;0.83;;
13208;SDS011;6669;42.678;23.332;2022-10-04T01:18:09;3.00;;;0.93;;
13208;SDS011;6669;42.678;23.332;2022-10-04T01:20:47;0.97;;;0.90;;
13208;SDS011;6669;42.678;23.332;2022-10-04T01:26:29;0.80;;;0.80;;
13208;SDS011;6669;42.678;23.332;2022-10-04T01:29:08;1.30;;;1.20;;
13208;SDS011;6669;42.678;23.332;2022-10-04T01:31:40;0.77;;;0.77;;
13208;SDS011;6669;42.678;23.332;2022-10-04T01:34:11;1.00;;;1.00;;
13208;SDS011;6669;42.678;23.332;2022-10-04T01:36:41;1.40;;;1.00;;
13208;SDS011;6669;42.678;23.332;2022-10-04T01:39:11;1.10;;;0.83;;
13208;SDS011;6669;42.678;23.332;2022-10-04T01:41:46;1.30;;;1.20;;
13208;SDS011;6669;42.678;23.332;2022-10-04T01:44:19;1.10;;;1.00;;
13208;SDS011;6669;42.678;23.332;2022-10-04T01:46:54;1.13;;;1.00;;
13208;SDS011;6669;42.678;23.332;2022-10-04T01:49:26;0.60;;;0.60;;
13208;SDS011;6669;42.678;23.332;2022-10-04T01:51:59;0.90;;;0.90;;
13208;SDS011;6669;42.678;23.332;2022-10-04T01:54:32;1.30;;;1.20;;
13208;SDS011;6669;42.678;23.332;2022-10-04T01:57:06;0.83;;;0.77;;
13208;SDS011;6669;42.678;23.332;2022-10-04T01:59:41;0.90;;;0.90;;
13208;SDS011;6669;42.678;23.332;2022-10-04T02:02:16;1.20;;;0.87;;
13208;SDS011;6669;42.678;23.332;2022-10-04T02:04:49;1.00;;;0.87;;
13208;SDS011;6669;42.678;23.332;2022-10-04T02:07:20;0.53;;;0.53;;
13208;SDS011;6669;42.678;23.332;2022-10-04T02:09:53;1.03;;;0.80;;
13208;SDS011;6669;42.678;23.332;2022-10-04T02:12:26;0.80;;;0.80;;
13208;SDS011;6669;42.678;23.332;2022-10-04T02:14:57;1.00;;;1.00;;
13208;SDS011;6669;42.678;23.332;2022-10-04T02:17:28;0.60;;;0.60;;
13208;SDS011;6669;42.678;23.332;2022-10-04T02:19:58;0.93;;;0.93;;
13208;SDS011;6669;42.678;23.332;2022-10-04T02:22:28;0.90;;;0.90;;
13208;SDS011;6669;42.678;23.332;2022-10-04T02:24:57;1.00;;;0.90;;
13208;SDS011;6669;42.678;23.332;2022-10-04T02:27:27;0.77;;;0.73;;
13208;SDS011;6669;42.678;23.332;2022-10-04T02:29:58;1.43;;;0.90;;
13208;SDS011;6669;42.678;23.332;2022-10-04T02:32:31;1.43;;;1.17;;
13208;SDS011;6669;42.678;23.332;2022-10-04T02:35:17;1.10;;;0.90;;
13208;SDS011;6669;42.678;23.332;2022-10-04T02:37:46;0.83;;;0.83;;
13208;SDS011;6669;42.678;23.332;2022-10-04T02:40:20;0.80;;;0.80;;
13208;SDS011;6669;42.678;23.332;2022-10-04T02:42:57;1.17;;;0.90;;
13208;SDS011;6669;42.678;23.332;2022-10-04T02:45:34;1.10;;;1.00;;
13208;SDS011;6669;42.678;23.332;2022-10-04T02:48:16;1.03;;;1.03;;
13208;SDS011;6669;42.678;23.332;2022-10-04T02:51:05;1.00;;;1.00;;
13208;SDS011;6669;42.678;23.332;2022-10-04T02:53:45;1.23;;;1.17;;
13208;SDS011;6669;42.678;23.332;2022-10-04T02:56:19;1.23;;;1.13;;
13208;SDS011;6669;42.678;23.332;2022-10-04T02:58:50;1.43;;;1.30;;
13208;SDS011;6669;42.678;23.332;2022-10-04T03:01:23;2.87;;;1.73;;
13208;SDS011;6669;42.678;23.332;2022-10-04T03:03:53;1.37;;;1.13;;
13208;SDS011;6669;42.678;23.332;2022-10-04T03:06:23;0.80;;;0.80;;
13208;SDS011;6669;42.678;23.332;2022-10-04T03:09:00;0.93;;;0.93;;
13208;SDS011;6669;42.678;23.332;2022-10-04T03:11:32;1.23;;;1.17;;
13208;SDS011;6669;42.678;23.332;2022-10-04T03:14:05;1.00;;;1.00;;
13208;SDS011;6669;42.678;23.332;2022-10-04T03:16:36;1.20;;;1.10;;
13208;SDS011;6669;42.678;23.332;2022-10-04T03:19:07;1.53;;;1.30;;
13208;SDS011;6669;42.678;23.332;2022-10-04T03:21:37;1.10;;;1.00;;
13208;SDS011;6669;42.678;23.332;2022-10-04T03:24:07;1.17;;;1.10;;
13208;SDS011;6669;42.678;23.332;2022-10-04T03:26:42;1.30;;;1.20;;
13208;SDS011;6669;42.678;23.332;2022-10-04T03:29:13;1.80;;;1.17;;
13208;SDS011;6669;42.678;23.332;2022-10-04T03:31:45;1.17;;;1.17;;
13208;SDS011;6669;42.678;23.332;2022-10-04T03:34:15;0.93;;;0.93;;
13208;SDS011;6669;42.678;23.332;2022-10-04T03:36:46;1.07;;;1.07;;
13208;SDS011;6669;42.678;23.332;2022-10-04T03:39:17;1.00;;;1.00;;
13208;SDS011;6669;42.678;23.332;2022-10-04T03:41:53;1.37;;;1.20;;
13208;SDS011;6669;42.678;23.332;2022-10-04T03:44:25;1.80;;;1.10;;
13208;SDS011;6669;42.678;23.332;2022-10-04T03:46:53;1.03;;;1.00;;
13208;SDS011;6669;42.678;23.332;2022-10-04T03:49:24;1.30;;;1.20;;
13208;SDS011;6669;42.678;23.332;2022-10-04T03:51:58;1.00;;;1.00;;
13208;SDS011;6669;42.678;23.332;2022-10-04T03:54:28;1.30;;;1.20;;
13208;SDS011;6669;42.678;23.332;2022-10-04T03:56:58;1.03;;;1.03;;
13208;SDS011;6669;42.678;23.332;2022-10-04T03:59:29;1.03;;;1.03;;
13208;SDS011;6669;42.678;23.332;2022-10-04T04:02:04;1.23;;;1.10;;
13208;SDS011;6669;42.678;23.332;2022-10-04T04:04:41;1.80;;;1.33;;
13208;SDS011;6669;42.678;23.332;2022-10-04T04:07:17;1.40;;;1.30;;
13208;SDS011;6669;42.678;23.332;2022-10-04T04:09:51;1.03;;;1.03;;
13208;SDS011;6669;42.678;23.332;2022-10-04T04:12:25;1.30;;;1.20;;
13208;SDS011;6669;42.678;23.332;2022-10-04T04:15:03;1.33;;;0.93;;
13208;SDS011;6669;42.678;23.332;2022-10-04T04:17:34;1.23;;;1.13;;
13208;SDS011;6669;42.678;23.332;2022-10-04T04:20:05;1.30;;;1.20;;
13208;SDS011;6669;42.678;23.332;2022-10-04T04:22:53;1.20;;;1.20;;
13208;SDS011;6669;42.678;23.332;2022-10-04T04:25:25;1.40;;;1.30;;
13208;SDS011;6669;42.678;23.332;2022-10-04T04:27:59;1.50;;;1.40;;
13208;SDS011;6669;42.678;23.332;2022-10-04T04:30:33;1.50;;;1.40;;
13208;SDS011;6669;42.678;23.332;2022-10-04T04:33:06;1.03;;;1.03;;
13208;SDS011;6669;42.678;23.332;2022-10-04T04:35:46;1.30;;;1.20;;
13208;SDS011;6669;42.678;23.332;2022-10-04T04:38:16;1.50;;;1.40;;
13208;SDS011;6669;42.678;23.332;2022-10-04T04:40:47;1.60;;;1.50;;
13208;SDS011;6669;42.678;23.332;2022-10-04T04:43:16;1.40;;;1.33;;
13208;SDS011;6669;42.678;23.332;2022-10-04T04:45:47;1.53;;;1.43;;
13208;SDS011;6669;42.678;23.332;2022-10-04T04:48:35;1.47;;;1.37;;
13208;SDS011;6669;42.678;23.332;2022-10-04T04:51:04;1.43;;;1.33;;
13208;SDS011;6669;42.678;23.332;2022-10-04T04:53:32;1.97;;;1.30;;
13208;SDS011;6669;42.678;23.332;2022-10-04T04:56:01;1.47;;;1.37;;
13208;SDS011;6669;42.678;23.332;2022-10-04T04:58:37;1.93;;;1.43;;
13208;SDS011;6669;42.678;23.332;2022-10-04T05:01:14;1.60;;;1.50;;
13208;SDS011;6669;42.678;23.332;2022-10-04T05:03:58;1.23;;;1.13;;
13208;SDS011;6669;42.678;23.332;2022-10-04T05:06:27;1.67;;;1.50;;
13208;SDS011;6669;42.678;23.332;2022-10-04T05:08:57;1.30;;;1.20;;
13208;SDS011;6669;42.678;23.332;2022-10-04T05:11:25;1.37;;;1.27;;
13208;SDS011;6669;42.678;23.332;2022-10-04T05:13:56;1.30;;;1.20;;
13208;SDS011;6669;42.678;23.332;2022-10-04T05:16:30;1.37;;;1.27;;
13208;SDS011;6669;42.678;23.332;2022-10-04T05:19:05;1.40;;;1.30;;
13208;SDS011;6669;42.678;23.332;2022-10-04T05:21:37;1.50;;;1.40;;
13208;SDS011;6669;42.678;23.332;2022-10-04T05:24:09;2.50;;;1.70;;
13208;SDS011;6669;42.678;23.332;2022-10-04T05:26:43;1.53;;;1.43;;
13208;SDS011;6669;42.678;23.332;2022-10-04T05:29:12;1.47;;;1.37;;
13208;SDS011;6669;42.678;23.332;2022-10-04T05:31:46;1.53;;;1.43;;
13208;SDS011;6669;42.678;23.332;2022-10-04T05:34:21;1.50;;;1.37;;
13208;SDS011;6669;42.678;23.332;2022-10-04T05:36:59;1.47;;;1.37;;
13208;SDS011;6669;42.678;23.332;2022-10-04T05:39:39;1.43;;;1.33;;
13208;SDS011;6669;42.678;23.332;2022-10-04T05:42:13;1.40;;;1.30;;
13208;SDS011;6669;42.678;23.332;2022-10-04T05:44:48;1.60;;;1.50;;
13208;SDS011;6669;42.678;23.332;2022-10-04T05:47:19;1.43;;;1.33;;
13208;SDS011;6669;42.678;23.332;2022-10-04T05:49:52;2.03;;;1.57;;
13208;SDS011;6669;42.678;23.332;2022-10-04T05:52:37;2.20;;;1.70;;
13208;SDS011;6669;42.678;23.332;2022-10-04T05:55:12;2.57;;;1.60;;
13208;SDS011;6669;42.678;23.332;2022-10-04T05:57:45;1.77;;;1.67;;
13208;SDS011;6669;42.678;23.332;2022-10-04T06:00:24;1.70;;;1.60;;
13208;SDS011;6669;42.678;23.332;2022-10-04T06:03:11;2.90;;;1.90;;
13208;SDS011;6669;42.678;23.332;2022-10-04T06:06:03;2.60;;;1.43;;
13208;SDS011;6669;42.678;23.332;2022-10-04T06:08:42;1.60;;;1.50;;
13208;SDS011;6669;42.678;23.332;2022-10-04T06:11:22;1.27;;;1.17;;
13208;SDS011;6669;42.678;23.332;2022-10-04T06:14:10;2.93;;;1.50;;
13208;SDS011;6669;42.678;23.332;2022-10-04T06:16:57;1.43;;;1.33;;
13208;SDS011;6669;42.678;23.332;2022-10-04T06:19:52;1.30;;;1.23;;
13208;SDS011;6669;42.678;23.332;2022-10-04T06:22:33;1.60;;;1.50;;
13208;SDS011;6669;42.678;23.332;2022-10-04T06:25:11;1.60;;;1.50;;
13208;SDS011;6669;42.678;23.332;2022-10-04T06:27:43;1.73;;;1.30;;
13208;SDS011;6669;42.678;23.332;2022-10-04T06:30:19;1.60;;;1.50;;
13208;SDS011;6669;42.678;23.332;2022-10-04T06:33:00;1.27;;;1.17;;
13208;SDS011;6669;42.678;23.332;2022-10-04T06:35:55;1.33;;;1.23;;
13208;SDS011;6669;42.678;23.332;2022-10-04T06:38:56;1.67;;;1.30;;
13208;SDS011;6669;42.678;23.332;2022-10-04T06:41:49;1.40;;;1.30;;
13208;SDS011;6669;42.678;23.332;2022-10-04T06:44:34;2.50;;;1.53;;
13208;SDS011;6669;42.678;23.332;2022-10-04T06:47:18;1.40;;;1.30;;
13208;SDS011;6669;42.678;23.332;2022-10-04T06:49:52;1.30;;;1.20;;
13208;SDS011;6669;42.678;23.332;2022-10-04T06:52:26;1.40;;;1.30;;
13208;SDS011;6669;42.678;23.332;2022-10-04T06:58:13;1.53;;;1.43;;
13208;SDS011;6669;42.678;23.332;2022-10-04T07:01:18;1.40;;;1.00;;
13208;SDS011;6669;42.678;23.332;2022-10-04T07:03:51;1.00;;;1.00;;
13208;SDS011;6669;42.678;23.332;2022-10-04T07:06:28;1.10;;;1.10;;
13208;SDS011;6669;42.678;23.332;2022-10-04T07:09:04;2.97;;;1.42;;
13208;SDS011;6669;42.678;23.332;2022-10-04T07:11:43;1.70;;;1.40;;
13208;SDS011;6669;42.678;23.332;2022-10-04T07:14:17;1.43;;;1.27;;
13208;SDS011;6669;42.678;23.332;2022-10-04T07:16:51;1.53;;;1.30;;
13208;SDS011;6669;42.678;23.332;2022-10-04T07:19:27;1.70;;;1.60;;
13208;SDS011;6669;42.678;23.332;2022-10-04T07:22:09;0.90;;;0.90;;
13208;SDS011;6669;42.678;23.332;2022-10-04T07:24:47;1.40;;;1.30;;
13208;SDS011;6669;42.678;23.332;2022-10-04T07:27:20;1.50;;;1.40;;
13208;SDS011;6669;42.678;23.332;2022-10-04T07:29:55;1.47;;;1.40;;
13208;SDS011;6669;42.678;23.332;2022-10-04T07:32:24;1.38;;;1.27;;
13208;SDS011;6669;42.678;23.332;2022-10-04T07:34:56;1.40;;;1.30;;
13208;SDS011;6669;42.678;23.332;2022-10-04T07:37:29;1.20;;;1.10;;
13208;SDS011;6669;42.678;23.332;2022-10-04T07:40:04;2.00;;;1.40;;
13208;SDS011;6669;42.678;23.332;2022-10-04T07:42:37;1.17;;;1.17;;
13208;SDS011;6669;42.678;23.332;2022-10-04T07:45:15;1.10;;;1.10;;
13208;SDS011;6669;42.678;23.332;2022-10-04T07:47:46;1.42;;;1.33;;
13208;SDS011;6669;42.678;23.332;2022-10-04T07:50:23;1.08;;;1.08;;
13208;SDS011;6669;42.678;23.332;2022-10-04T07:52:54;1.13;;;1.13;;
13208;SDS011;6669;42.678;23.332;2022-10-04T07:55:41;1.00;;;0.88;;
13208;SDS011;6669;42.678;23.332;2022-10-04T08:01:15;0.90;;;0.90;;
13208;SDS011;6669;42.678;23.332;2022-10-04T08:03:54;1.20;;;1.20;;
13208;SDS011;6669;42.678;23.332;2022-10-04T08:06:30;1.30;;;1.30;;
13208;SDS011;6669;42.678;23.332;2022-10-04T08:09:16;5.32;;;4.00;;
13208;SDS011;6669;42.678;23.332;2022-10-04T08:11:56;0.95;;;0.95;;
13208;SDS011;6669;42.678;23.332;2022-10-04T08:14:33;2.58;;;1.55;;
13208;SDS011;6669;42.678;23.332;2022-10-04T08:17:17;1.67;;;1.58;;
13208;SDS011;6669;42.678;23.332;2022-10-04T08:19:56;1.48;;;1.38;;
13208;SDS011;6669;42.678;23.332;2022-10-04T08:22:32;1.30;;;1.20;;
13208;SDS011;6669;42.678;23.332;2022-10-04T08:25:10;1.00;;;1.00;;
13208;SDS011;6669;42.678;23.332;2022-10-04T08:27:49;1.15;;;1.15;;
13208;SDS011;6669;42.678;23.332;2022-10-04T08:33:44;1.15;;;1.13;;
13208;SDS011;6669;42.678;23.332;2022-10-04T08:36:27;1.20;;;1.10;;
13208;SDS011;6669;42.678;23.332;2022-10-04T08:39:09;1.30;;;1.20;;
13208;SDS011;6669;42.678;23.332;2022-10-04T08:45:44;1.02;;;1.02;;
13208;SDS011;6669;42.678;23.332;2022-10-04T08:51:50;1.30;;;1.20;;
13208;SDS011;6669;42.678;23.332;2022-10-04T08:54:49;0.80;;;0.80;;
13208;SDS011;6669;42.678;23.332;2022-10-04T08:57:45;1.33;;;1.25;;
13208;SDS011;6669;42.678;23.332;2022-10-04T09:00:28;1.10;;;1.00;;
13208;SDS011;6669;42.678;23.332;2022-10-04T09:06:10;2.10;;;1.23;;
13208;SDS011;6669;42.678;23.332;2022-10-04T09:09:08;1.30;;;1.20;;
13208;SDS011;6669;42.678;23.332;2022-10-04T09:15:19;1.00;;;1.00;;
13208;SDS011;6669;42.678;23.332;2022-10-04T09:17:54;0.98;;;0.98;;
13208;SDS011;6669;42.678;23.332;2022-10-04T09:20:32;1.33;;;1.23;;
13208;SDS011;6669;42.678;23.332;2022-10-04T09:23:20;1.30;;;1.20;;
13208;SDS011;6669;42.678;23.332;2022-10-04T09:26:12;2.67;;;1.90;;
13208;SDS011;6669;42.678;23.332;2022-10-04T09:28:59;1.00;;;1.00;;
13208;SDS011;6669;42.678;23.332;2022-10-04T09:34:57;1.30;;;1.20;;
13208;SDS011;6669;42.678;23.332;2022-10-04T09:37:55;0.80;;;0.80;;
13208;SDS011;6669;42.678;23.332;2022-10-04T09:53:04;1.10;;;1.10;;
13208;SDS011;6669;42.678;23.332;2022-10-04T09:55:57;0.85;;;0.85;;
13208;SDS011;6669;42.678;23.332;2022-10-04T09:59:01;1.55;;;1.45;;
13208;SDS011;6669;42.678;23.332;2022-10-04T10:01:52;2.10;;;1.10;;
13208;SDS011;6669;42.678;23.332;2022-10-04T10:04:41;1.02;;;1.02;;
13208;SDS011;6669;42.678;23.332;2022-10-04T10:10:09;1.00;;;0.95;;
13208;SDS011;6669;42.678;23.332;2022-10-04T10:13:05;1.67;;;1.58;;
13208;SDS011;6669;42.678;23.332;2022-10-04T10:16:16;1.52;;;1.38;;
13208;SDS011;6669;42.678;23.332;2022-10-04T10:18:59;1.08;;;0.98;;
13208;SDS011;6669;42.678;23.332;2022-10-04T10:21:44;1.13;;;1.05;;
13208;SDS011;6669;42.678;23.332;2022-10-04T10:24:36;1.40;;;1.30;;
13208;SDS011;6669;42.678;23.332;2022-10-04T10:27:31;1.10;;;1.10;;
13208;SDS011;6669;42.678;23.332;2022-10-04T10:30:22;1.17;;;1.15;;
13208;SDS011;6669;42.678;23.332;2022-10-04T10:33:03;1.45;;;1.35;;
13208;SDS011;6669;42.678;23.332;2022-10-04T10:35:46;1.10;;;1.10;;
13208;SDS011;6669;42.678;23.332;2022-10-04T10:38:34;1.48;;;1.38;;
13208;SDS011;6669;42.678;23.332;2022-10-04T10:41:18;1.35;;;1.25;;
13208;SDS011;6669;42.678;23.332;2022-10-04T10:44:07;1.35;;;1.25;;
13208;SDS011;6669;42.678;23.332;2022-10-04T10:46:55;1.13;;;1.13;;
13208;SDS011;6669;42.678;23.332;2022-10-04T10:49:40;1.30;;;1.20;;
13208;SDS011;6669;42.678;23.332;2022-10-04T10:55:29;1.20;;;1.10;;
13208;SDS011;6669;42.678;23.332;2022-10-04T10:58:40;1.50;;;1.40;;
13208;SDS011;6669;42.678;23.332;2022-10-04T11:04:34;1.42;;;1.33;;
13208;SDS011;6669;42.678;23.332;2022-10-04T11:07:15;1.50;;;1.20;;
13208;SDS011;6669;42.678;23.332;2022-10-04T11:10:01;1.42;;;1.33;;
13208;SDS011;6669;42.678;23.332;2022-10-04T11:16:05;1.15;;;1.05;;
13208;SDS011;6669;42.678;23.332;2022-10-04T11:22:28;1.75;;;1.27;;
13208;SDS011;6669;42.678;23.332;2022-10-04T11:28:33;1.08;;;1.08;;
13208;SDS011;6669;42.678;23.332;2022-10-04T11:34:29;5.07;;;1.30;;
13208;SDS011;6669;42.678;23.332;2022-10-04T11:37:28;0.90;;;0.90;;
13208;SDS011;6669;42.678;23.332;2022-10-04T11:40:16;1.48;;;1.38;;
13208;SDS011;6669;42.678;23.332;2022-10-04T11:43:04;1.27;;;1.20;;
13208;SDS011;6669;42.678;23.332;2022-10-04T11:46:00;1.27;;;1.20;;
13208;SDS011;6669;42.678;23.332;2022-10-04T11:49:05;1.35;;;1.33;;
13208;SDS011;6669;42.678;23.332;2022-10-04T11:51:56;1.30;;;1.17;;
13208;SDS011;6669;42.678;23.332;2022-10-04T11:54:42;1.52;;;1.25;;
13208;SDS011;6669;42.678;23.332;2022-10-04T11:57:50;1.20;;;1.10;;
13208;SDS011;6669;42.678;23.332;2022-10-04T12:00:21;1.17;;;1.17;;
13208;SDS011;6669;42.678;23.332;2022-10-04T12:03:06;2.15;;;1.88;;
13208;SDS011;6669;42.678;23.332;2022-10-04T12:06:15;1.25;;;1.20;;
13208;SDS011;6669;42.678;23.332;2022-10-04T12:08:53;1.50;;;1.40;;
13208;SDS011;6669;42.678;23.332;2022-10-04T12:11:36;1.70;;;1.60;;
13208;SDS011;6669;42.678;23.332;2022-10-04T12:14:41;1.30;;;1.20;;
13208;SDS011;6669;42.678;23.332;2022-10-04T12:17:46;1.27;;;1.17;;
13208;SDS011;6669;42.678;23.332;2022-10-04T12:20:47;1.40;;;1.30;;
13208;SDS011;6669;42.678;23.332;2022-10-04T12:23:51;1.75;;;1.20;;
13208;SDS011;6669;42.678;23.332;2022-10-04T12:26:36;1.50;;;1.30;;
13208;SDS011;6669;42.678;23.332;2022-10-04T12:29:52;0.90;;;0.90;;
13208;SDS011;6669;42.678;23.332;2022-10-04T12:32:42;3.33;;;1.52;;
13208;SDS011;6669;42.678;23.332;2022-10-04T12:35:25;0.95;;;0.95;;
13208;SDS011;6669;42.678;23.332;2022-10-04T12:41:08;1.45;;;1.35;;
13208;SDS011;6669;42.678;23.332;2022-10-04T12:43:45;0.80;;;0.80;;
13208;SDS011;6669;42.678;23.332;2022-10-04T12:46:25;1.40;;;1.25;;
13208;SDS011;6669;42.678;23.332;2022-10-04T12:49:09;1.50;;;1.40;;
13208;SDS011;6669;42.678;23.332;2022-10-04T12:51:49;1.33;;;1.23;;
13208;SDS011;6669;42.678;23.332;2022-10-04T12:57:13;1.17;;;1.08;;
13208;SDS011;6669;42.678;23.332;2022-10-04T13:00:02;1.45;;;1.20;;
13208;SDS011;6669;42.678;23.332;2022-10-04T13:05:51;2.20;;;1.58;;
13208;SDS011;6669;42.678;23.332;2022-10-04T13:08:31;1.10;;;1.00;;
13208;SDS011;6669;42.678;23.332;2022-10-04T13:11:18;0.93;;;0.93;;
13208;SDS011;6669;42.678;23.332;2022-10-04T13:17:03;1.33;;;1.23;;
13208;SDS011;6669;42.678;23.332;2022-10-04T13:20:02;1.50;;;1.40;;
13208;SDS011;6669;42.678;23.332;2022-10-04T13:22:46;2.00;;;1.38;;
13208;SDS011;6669;42.678;23.332;2022-10-04T13:25:26;1.60;;;1.50;;
13208;SDS011;6669;42.678;23.332;2022-10-04T13:28:11;3.05;;;2.75;;
13208;SDS011;6669;42.678;23.332;2022-10-04T13:30:51;1.65;;;1.50;;
13208;SDS011;6669;42.678;23.332;2022-10-04T13:33:28;1.00;;;1.00;;
13208;SDS011;6669;42.678;23.332;2022-10-04T13:36:07;1.40;;;1.30;;
13208;SDS011;6669;42.678;23.332;2022-10-04T13:41:36;1.45;;;1.35;;
13208;SDS011;6669;42.678;23.332;2022-10-04T13:44:31;3.95;;;1.50;;
13208;SDS011;6669;42.678;23.332;2022-10-04T13:47:27;1.48;;;1.38;;
13208;SDS011;6669;42.678;23.332;2022-10-04T13:50:20;1.50;;;1.40;;
13208;SDS011;6669;42.678;23.332;2022-10-04T13:53:04;1.52;;;1.42;;
13208;SDS011;6669;42.678;23.332;2022-10-04T13:56:06;2.63;;;1.60;;
13208;SDS011;6669;42.678;23.332;2022-10-04T13:59:07;1.25;;;1.20;;
13208;SDS011;6669;42.678;23.332;2022-10-04T14:08:00;3.47;;;1.77;;
13208;SDS011;6669;42.678;23.332;2022-10-04T14:10:42;1.63;;;1.52;;
13208;SDS011;6669;42.678;23.332;2022-10-04T14:16:43;1.73;;;1.60;;
13208;SDS011;6669;42.678;23.332;2022-10-04T14:19:46;1.85;;;1.75;;
13208;SDS011;6669;42.678;23.332;2022-10-04T14:22:42;1.58;;;1.48;;
13208;SDS011;6669;42.678;23.332;2022-10-04T14:31:54;2.33;;;1.50;;
13208;SDS011;6669;42.678;23.332;2022-10-04T14:34:55;1.55;;;1.45;;
13208;SDS011;6669;42.678;23.332;2022-10-04T14:37:37;1.75;;;1.58;;
13208;SDS011;6669;42.678;23.332;2022-10-04T14:40:47;1.40;;;1.30;;
13208;SDS011;6669;42.678;23.332;2022-10-04T14:43:34;1.48;;;1.38;;
13208;SDS011;6669;42.678;23.332;2022-10-04T14:46:39;1.90;;;1.80;;
13208;SDS011;6669;42.678;23.332;2022-10-04T14:49:19;1.90;;;1.73;;
13208;SDS011;6669;42.678;23.332;2022-10-04T14:51:58;1.85;;;1.75;;
13208;SDS011;6669;42.678;23.332;2022-10-04T14:54:37;1.73;;;1.63;;
13208;SDS011;6669;42.678;23.332;2022-10-04T14:57:15;1.75;;;1.65;;
13208;SDS011;6669;42.678;23.332;2022-10-04T14:59:52;1.73;;;1.63;;
13208;SDS011;6669;42.678;23.332;2022-10-04T15:02:36;1.50;;;1.40;;
13208;SDS011;6669;42.678;23.332;2022-10-04T15:05:28;1.65;;;1.50;;
13208;SDS011;6669;42.678;23.332;2022-10-04T15:08:17;1.45;;;1.35;;
13208;SDS011;6669;42.678;23.332;2022-10-04T15:11:05;2.20;;;2.00;;
13208;SDS011;6669;42.678;23.332;2022-10-04T15:13:38;1.90;;;1.70;;
13208;SDS011;6669;42.678;23.332;2022-10-04T15:16:22;1.63;;;1.52;;
13208;SDS011;6669;42.678;23.332;2022-10-04T15:19:06;1.90;;;1.80;;
13208;SDS011;6669;42.678;23.332;2022-10-04T15:21:40;1.73;;;1.63;;
13208;SDS011;6669;42.678;23.332;2022-10-04T15:30:16;1.80;;;1.48;;
13208;SDS011;6669;42.678;23.332;2022-10-04T15:32:50;1.52;;;1.42;;
13208;SDS011;6669;42.678;23.332;2022-10-04T15:35:28;1.80;;;1.70;;
13208;SDS011;6669;42.678;23.332;2022-10-04T15:38:04;1.88;;;1.77;;
13208;SDS011;6669;42.678;23.332;2022-10-04T15:40:57;1.60;;;1.50;;
13208;SDS011;6669;42.678;23.332;2022-10-04T15:43:30;1.80;;;1.70;;
13208;SDS011;6669;42.678;23.332;2022-10-04T15:46:33;3.13;;;2.00;;
13208;SDS011;6669;42.678;23.332;2022-10-04T15:49:25;2.28;;;1.95;;
13208;SDS011;6669;42.678;23.332;2022-10-04T15:52:06;2.92;;;2.30;;
13208;SDS011;6669;42.678;23.332;2022-10-04T15:54:45;3.70;;;2.30;;
13208;SDS011;6669;42.678;23.332;2022-10-04T15:57:59;3.40;;;2.90;;
13208;SDS011;6669;42.678;23.332;2022-10-04T16:00:45;3.25;;;2.70;;
13208;SDS011;6669;42.678;23.332;2022-10-04T16:03:24;2.35;;;2.15;;
13208;SDS011;6669;42.678;23.332;2022-10-04T16:06:01;6.53;;;2.85;;
13208;SDS011;6669;42.678;23.332;2022-10-04T16:08:36;2.40;;;2.20;;
13208;SDS011;6669;42.678;23.332;2022-10-04T16:11:23;2.83;;;1.98;;
13208;SDS011;6669;42.678;23.332;2022-10-04T16:14:05;1.88;;;1.77;;
13208;SDS011;6669;42.678;23.332;2022-10-04T16:20:22;2.30;;;2.10;;
13208;SDS011;6669;42.678;23.332;2022-10-04T16:25:59;2.00;;;1.90;;
13208;SDS011;6669;42.678;23.332;2022-10-04T16:28:36;1.80;;;1.70;;
13208;SDS011;6669;42.678;23.332;2022-10-04T16:31:39;2.58;;;2.38;;
13208;SDS011;6669;42.678;23.332;2022-10-04T16:40:32;3.78;;;2.50;;
13208;SDS011;6669;42.678;23.332;2022-10-04T16:43:05;2.67;;;2.17;;
13208;SDS011;6669;42.678;23.332;2022-10-04T16:45:42;2.42;;;2.17;;
13208;SDS011;6669;42.678;23.332;2022-10-04T16:48:31;2.10;;;1.90;;
13208;SDS011;6669;42.678;23.332;2022-10-04T16:54:28;3.28;;;2.60;;
13208;SDS011;6669;42.678;23.332;2022-10-04T16:57:25;3.60;;;2.17;;
13208;SDS011;6669;42.678;23.332;2022-10-04T16:59:55;3.13;;;2.30;;
13208;SDS011;6669;42.678;23.332;2022-10-04T17:05:20;3.70;;;1.90;;
13208;SDS011;6669;42.678;23.332;2022-10-04T17:08:21;1.83;;;1.73;;
13208;SDS011;6669;42.678;23.332;2022-10-04T17:14:05;2.40;;;2.20;;
13208;SDS011;6669;42.678;23.332;2022-10-04T17:16:57;3.53;;;2.40;;
13208;SDS011;6669;42.678;23.332;2022-10-04T17:19:33;3.22;;;2.13;;
13208;SDS011;6669;42.678;23.332;2022-10-04T17:22:14;3.25;;;1.92;;
13208;SDS011;6669;42.678;23.332;2022-10-04T17:25:00;2.65;;;2.38;;
13208;SDS011;6669;42.678;23.332;2022-10-04T17:27:45;2.40;;;2.20;;
13208;SDS011;6669;42.678;23.332;2022-10-04T17:30:19;2.10;;;1.90;;
13208;SDS011;6669;42.678;23.332;2022-10-04T17:35:59;1.95;;;1.85;;
13208;SDS011;6669;42.678;23.332;2022-10-04T17:38:43;2.33;;;2.10;;
13208;SDS011;6669;42.678;23.332;2022-10-04T17:41:23;2.42;;;2.22;;
13208;SDS011;6669;42.678;23.332;2022-10-04T17:44:05;4.60;;;2.50;;
13208;SDS011;6669;42.678;23.332;2022-10-04T17:46:51;2.40;;;2.20;;
13208;SDS011;6669;42.678;23.332;2022-10-04T17:49:29;4.65;;;2.40;;
13208;SDS011;6669;42.678;23.332;2022-10-04T17:52:23;2.92;;;2.35;;
13208;SDS011;6669;42.678;23.332;2022-10-04T17:55:19;3.55;;;2.60;;
13208;SDS011;6669;42.678;23.332;2022-10-04T17:57:54;2.80;;;2.20;;
13208;SDS011;6669;42.678;23.332;2022-10-04T18:00:44;2.55;;;2.35;;
13208;SDS011;6669;42.678;23.332;2022-10-04T18:03:18;2.80;;;2.33;;
13208;SDS011;6669;42.678;23.332;2022-10-04T18:05:50;2.53;;;2.05;;
13208;SDS011;6669;42.678;23.332;2022-10-04T18:08:33;3.23;;;2.47;;
13208;SDS011;6669;42.678;23.332;2022-10-04T18:11:14;4.10;;;2.75;;
13208;SDS011;6669;42.678;23.332;2022-10-04T18:13:49;3.05;;;2.65;;
13208;SDS011;6669;42.678;23.332;2022-10-04T18:16:24;3.93;;;2.53;;
13208;SDS011;6669;42.678;23.332;2022-10-04T18:18:57;2.50;;;2.30;;
13208;SDS011;6669;42.678;23.332;2022-10-04T18:21:51;3.13;;;2.38;;
13208;SDS011;6669;42.678;23.332;2022-10-04T18:24:21;2.60;;;2.40;;